Time;durP1;ratioP1;P1;durP2;ratioP2;P2;SDS_P1;SDS_P2;PMS_P1;PMS_P2;Temp;Humidity;BMP_temperature;BMP_pressure;BME280_temperature;BME280_humidity;BME280_pressure;Samples;Min_cycle;Max_cycle;Signal;HPM_P1;HPM_P2
2022/05/22 00:02:10;;;;;;;0.80;0.70;;;25.00;44.30;;;;;;5024493;28;20036;-68
2022/05/22 00:04:36;;;;;;;1.13;0.80;;;25.00;44.30;;;;;;5026274;28;20039;-65
2022/05/22 00:07:04;;;;;;;1.80;0.90;;;25.00;44.30;;;;;;5027580;28;20052;-66
2022/05/22 00:09:29;;;;;;;1.08;0.77;;;25.00;44.30;;;;;;5032289;28;20025;-67
2022/05/22 00:11:55;;;;;;;1.45;0.77;;;25.10;44.40;;;;;;5026099;28;20031;-68
2022/05/22 00:14:21;;;;;;;1.52;0.88;;;25.00;44.40;;;;;;5023771;28;20025;-67
2022/05/22 00:16:47;;;;;;;1.35;0.90;;;25.00;44.40;;;;;;5027796;28;20060;-64
2022/05/22 00:19:17;;;;;;;1.05;0.80;;;25.00;44.40;;;;;;5025893;28;20452;-68
2022/05/22 00:21:43;;;;;;;1.15;0.73;;;25.00;44.40;;;;;;5021549;28;20033;-68
2022/05/22 00:24:11;;;;;;;1.10;0.70;;;25.00;44.40;;;;;;5024958;28;20033;-69
2022/05/22 00:26:37;;;;;;;1.27;0.80;;;25.00;44.40;;;;;;5026216;28;20375;-62
2022/05/22 00:29:02;;;;;;;1.17;0.80;;;25.00;44.50;;;;;;5021249;28;20029;-68
2022/05/22 00:31:28;;;;;;;0.70;0.70;;;25.00;44.50;;;;;;5022696;28;20074;-66
2022/05/22 00:33:54;;;;;;;1.10;0.70;;;25.00;44.50;;;;;;5029371;28;20025;-65
2022/05/22 00:36:20;;;;;;;1.20;0.80;;;25.00;44.50;;;;;;5022762;28;20033;-65
2022/05/22 00:38:46;;;;;;;1.10;0.80;;;25.00;44.60;;;;;;5024172;28;20048;-65
2022/05/22 00:41:13;;;;;;;1.20;0.80;;;25.00;44.60;;;;;;5024862;28;20120;-64
2022/05/22 00:43:48;;;;;;;1.60;1.00;;;25.00;44.60;;;;;;5021320;28;20072;-69
2022/05/22 00:46:16;;;;;;;1.10;0.80;;;25.00;44.60;;;;;;5023353;28;20037;-67
2022/05/22 00:48:47;;;;;;;1.48;0.90;;;25.00;44.60;;;;;;5024687;28;20036;-67
2022/05/22 00:52:03;;;;;;;1.20;0.80;;;25.00;44.60;;;;;;5028222;28;20025;-66
2022/05/22 00:54:38;;;;;;;1.02;0.70;;;24.90;44.50;;;;;;4950949;28;20034;-68
2022/05/22 00:57:15;;;;;;;1.48;1.00;;;25.00;44.70;;;;;;4951765;28;20030;-69
2022/05/22 00:59:45;;;;;;;1.02;0.80;;;24.90;44.60;;;;;;5008190;28;20044;-67
2022/05/22 01:02:13;;;;;;;2.67;1.00;;;24.90;44.60;;;;;;5023702;28;20041;-65
2022/05/22 01:04:39;;;;;;;0.88;0.77;;;24.90;44.60;;;;;;5026367;28;20523;-67
2022/05/22 01:07:07;;;;;;;1.63;0.90;;;24.90;45.20;;;;;;5025125;28;20178;-65
2022/05/22 01:09:34;;;;;;;1.13;0.85;;;24.90;44.70;;;;;;5025472;28;20176;-67
2022/05/22 01:12:05;;;;;;;1.20;0.80;;;24.90;44.70;;;;;;5022691;28;20070;-64
2022/05/22 01:14:32;;;;;;;0.88;0.70;;;24.90;44.70;;;;;;5027076;28;20186;-68
2022/05/22 01:17:05;;;;;;;1.55;0.88;;;24.90;44.70;;;;;;5023003;28;20098;-68
2022/05/22 01:19:31;;;;;;;1.33;0.80;;;24.90;44.80;;;;;;5028648;28;20037;-67
2022/05/22 01:22:01;;;;;;;1.50;0.90;;;24.90;44.80;;;;;;5023228;28;20040;-67
2022/05/22 01:24:27;;;;;;;1.20;0.80;;;24.90;44.80;;;;;;5028706;28;20033;-68
2022/05/22 01:26:56;;;;;;;1.80;0.90;;;24.90;44.80;;;;;;5024994;28;20043;-67
2022/05/22 01:29:22;;;;;;;1.00;0.70;;;24.90;45.40;;;;;;5028236;28;20091;-68
2022/05/22 01:31:47;;;;;;;1.08;0.80;;;24.90;44.80;;;;;;5027106;28;20037;-66
2022/05/22 01:34:13;;;;;;;1.17;0.80;;;24.90;44.80;;;;;;5031125;28;20033;-68
2022/05/22 01:36:39;;;;;;;1.25;0.80;;;24.80;44.80;;;;;;5030381;28;20064;-69
2022/05/22 01:39:05;;;;;;;0.82;0.80;;;24.80;44.90;;;;;;5028454;28;21705;-68
2022/05/22 01:41:31;;;;;;;0.90;0.80;;;24.90;44.90;;;;;;5025641;28;20131;-67
2022/05/22 01:43:56;;;;;;;1.30;0.80;;;24.90;44.90;;;;;;5025822;28;20086;-68
2022/05/22 01:46:22;;;;;;;1.25;0.80;;;24.80;44.90;;;;;;5027322;28;20026;-68
2022/05/22 01:48:48;;;;;;;1.10;0.60;;;24.80;44.90;;;;;;5008409;28;20713;-68
2022/05/22 01:51:13;;;;;;;1.02;0.82;;;24.80;44.90;;;;;;5024888;28;20029;-64
2022/05/22 01:53:39;;;;;;;0.80;0.70;;;24.90;45.00;;;;;;5023372;28;20103;-63
2022/05/22 01:56:05;;;;;;;0.90;0.80;;;24.90;45.00;;;;;;5021398;28;20032;-68
2022/05/22 01:58:30;;;;;;;1.08;0.80;;;24.80;44.90;;;;;;5021919;28;20033;-66
2022/05/22 02:00:56;;;;;;;0.82;0.70;;;24.80;45.00;;;;;;5026305;28;20044;-69
2022/05/22 02:03:22;;;;;;;1.15;0.80;;;24.80;44.90;;;;;;5023671;28;20465;-67
2022/05/22 02:05:48;;;;;;;1.25;0.77;;;24.80;44.90;;;;;;5026138;28;20025;-67
2022/05/22 02:08:19;;;;;;;1.45;0.70;;;24.80;45.00;;;;;;5024145;28;20098;-67
2022/05/22 02:10:47;;;;;;;1.30;0.82;;;24.80;45.00;;;;;;5024454;28;20052;-63
2022/05/22 02:13:16;;;;;;;1.10;0.90;;;24.80;45.00;;;;;;5022755;28;20024;-68
2022/05/22 02:15:43;;;;;;;;;;;24.80;45.00;;;;;;5026797;28;20507;-65
2022/05/22 02:18:09;;;;;;;1.02;0.70;;;24.80;45.00;;;;;;5028278;28;19913;-66
2022/05/22 02:20:34;;;;;;;0.80;0.70;;;24.80;45.10;;;;;;5007790;28;20420;-63
2022/05/22 02:23:00;;;;;;;0.80;0.70;;;24.80;45.00;;;;;;5022118;28;20032;-65
2022/05/22 02:25:32;;;;;;;1.05;0.68;;;24.80;45.10;;;;;;5025677;28;20408;-66
2022/05/22 02:27:58;;;;;;;1.20;0.77;;;24.80;45.10;;;;;;5020941;28;20055;-68
2022/05/22 02:30:29;;;;;;;0.90;0.70;;;24.80;45.10;;;;;;5007753;28;20079;-64
2022/05/22 02:32:55;;;;;;;0.82;0.70;;;24.70;45.10;;;;;;5027649;28;20752;-67
2022/05/22 02:35:21;;;;;;;0.82;0.70;;;24.70;45.10;;;;;;5024005;28;20048;-66
2022/05/22 02:37:53;;;;;;;0.98;0.70;;;24.70;45.10;;;;;;5026394;28;20032;-66
2022/05/22 02:40:24;;;;;;;1.23;0.80;;;24.80;45.20;;;;;;5025854;28;20094;-68
2022/05/22 02:42:51;;;;;;;0.98;0.80;;;24.70;45.10;;;;;;5021380;28;20053;-65
2022/05/22 02:45:20;;;;;;;1.38;0.90;;;24.70;45.20;;;;;;5026521;28;20044;-63
2022/05/22 02:47:46;;;;;;;1.30;0.75;;;24.70;45.20;;;;;;5026896;28;20053;-67
2022/05/22 02:50:14;;;;;;;1.00;0.80;;;24.70;45.20;;;;;;5026898;28;20041;-67
2022/05/22 02:52:40;;;;;;;0.95;0.75;;;24.70;45.20;;;;;;5026593;28;20029;-63
2022/05/22 02:55:08;;;;;;;1.25;0.80;;;24.70;45.20;;;;;;5023746;28;20031;-65
2022/05/22 02:57:34;;;;;;;1.23;0.77;;;24.70;45.20;;;;;;5021746;28;20341;-64
2022/05/22 03:00:00;;;;;;;1.38;0.80;;;24.70;45.20;;;;;;5026734;28;20037;-67
2022/05/22 03:02:25;;;;;;;2.42;1.00;;;24.70;45.30;;;;;;5025837;28;20630;-65
2022/05/22 03:04:51;;;;;;;1.27;0.90;;;24.70;45.30;;;;;;5023594;28;20040;-67
2022/05/22 03:07:19;;;;;;;1.50;0.80;;;24.70;45.30;;;;;;5026828;28;20024;-67
2022/05/22 03:09:46;;;;;;;0.98;0.73;;;24.70;45.80;;;;;;5025146;28;20105;-65
2022/05/22 03:12:19;;;;;;;1.15;0.75;;;24.70;45.30;;;;;;5024846;28;20101;-66
2022/05/22 03:14:51;;;;;;;0.80;0.80;;;24.70;45.30;;;;;;5024167;28;20170;-65
2022/05/22 03:17:17;;;;;;;0.88;0.70;;;24.60;45.30;;;;;;5024244;28;20626;-64
2022/05/22 03:19:43;;;;;;;0.80;0.60;;;24.70;45.30;;;;;;5025161;28;20029;-63
2022/05/22 03:22:10;;;;;;;1.13;0.80;;;24.60;45.30;;;;;;5025862;28;20818;-66
2022/05/22 03:24:37;;;;;;;1.25;0.90;;;24.60;45.30;;;;;;5026505;28;20100;-68
2022/05/22 03:27:10;;;;;;;1.00;0.70;;;24.60;45.30;;;;;;5023265;28;20132;-66
2022/05/22 03:29:37;;;;;;;0.95;0.70;;;24.60;45.30;;;;;;5023443;28;20028;-65
2022/05/22 03:32:03;;;;;;;0.85;0.70;;;24.60;45.30;;;;;;5025620;28;20132;-66
2022/05/22 03:34:29;;;;;;;1.02;0.73;;;24.60;45.30;;;;;;5022418;28;20044;-63
2022/05/22 03:36:55;;;;;;;0.73;0.60;;;24.70;45.40;;;;;;5026844;28;20025;-68
2022/05/22 03:39:21;;;;;;;1.17;0.80;;;24.60;45.30;;;;;;5024481;28;20161;-61
2022/05/22 03:41:47;;;;;;;0.85;0.70;;;24.60;45.30;;;;;;5025946;28;20033;-67
2022/05/22 03:44:13;;;;;;;1.27;0.85;;;24.60;45.30;;;;;;5021783;28;20025;-66
2022/05/22 03:46:39;;;;;;;0.63;0.60;;;24.60;45.30;;;;;;5028893;28;20045;-67
2022/05/22 03:49:04;;;;;;;0.80;0.70;;;24.60;45.40;;;;;;5026799;28;20021;-67
2022/05/22 03:51:30;;;;;;;1.02;0.68;;;24.60;45.40;;;;;;5026408;28;20080;-65
2022/05/22 03:53:55;;;;;;;0.75;0.75;;;24.60;45.40;;;;;;5027055;28;20112;-66
2022/05/22 03:56:22;;;;;;;0.85;0.80;;;24.60;45.40;;;;;;5030017;28;20041;-68
2022/05/22 03:58:47;;;;;;;1.08;0.73;;;24.60;45.40;;;;;;5025776;28;20054;-65
2022/05/22 04:01:14;;;;;;;1.23;0.80;;;24.60;45.50;;;;;;5030387;28;20047;-65
2022/05/22 04:03:40;;;;;;;0.93;0.70;;;24.60;45.50;;;;;;5026430;28;20043;-62
2022/05/22 04:06:07;;;;;;;1.10;0.68;;;24.50;45.40;;;;;;5026344;28;20029;-66
2022/05/22 04:08:34;;;;;;;0.70;0.65;;;24.50;45.40;;;;;;5027040;28;20460;-68
2022/05/22 04:11:07;;;;;;;0.75;0.70;;;24.50;45.40;;;;;;5027648;28;20547;-67
2022/05/22 04:13:32;;;;;;;0.70;0.60;;;24.50;45.40;;;;;;5025952;28;20044;-66
2022/05/22 04:15:58;;;;;;;0.90;0.70;;;24.50;45.40;;;;;;5028310;28;20511;-65
2022/05/22 04:18:24;;;;;;;0.77;0.65;;;24.50;45.50;;;;;;5024369;28;20107;-66
2022/05/22 04:20:50;;;;;;;1.10;0.70;;;24.50;45.50;;;;;;5028641;28;20025;-67
2022/05/22 04:26:00;;;;;;;0.82;0.70;;;24.50;45.50;;;;;;5026150;28;20064;-67
2022/05/22 04:28:27;;;;;;;0.90;0.70;;;24.50;45.60;;;;;;5021675;28;20132;-68
2022/05/22 04:30:53;;;;;;;0.73;0.60;;;24.50;45.50;;;;;;5012186;28;20036;-67
2022/05/22 04:33:19;;;;;;;0.82;0.70;;;24.50;45.50;;;;;;5027725;28;20094;-65
2022/05/22 04:35:45;;;;;;;0.70;0.70;;;24.50;45.50;;;;;;5027761;28;20032;-65
2022/05/22 04:38:11;;;;;;;0.75;0.60;;;24.50;45.50;;;;;;5026125;28;20495;-65
2022/05/22 04:40:41;;;;;;;0.88;0.75;;;24.50;45.60;;;;;;5027898;28;20507;-68
2022/05/22 04:43:06;;;;;;;;;;;24.50;45.60;;;;;;5008492;28;20045;-67
2022/05/22 04:45:33;;;;;;;0.60;0.60;;;24.50;45.60;;;;;;5026983;28;20337;-66
2022/05/22 04:47:59;;;;;;;0.60;0.55;;;24.50;45.60;;;;;;5028206;28;20212;-68
2022/05/22 04:50:25;;;;;;;0.60;0.60;;;24.40;45.60;;;;;;5027686;28;20153;-66
2022/05/22 04:52:52;;;;;;;0.73;0.60;;;24.40;45.60;;;;;;5026811;28;20132;-66
2022/05/22 04:55:18;;;;;;;0.60;0.60;;;24.50;45.60;;;;;;5028170;28;20036;-65
2022/05/22 04:57:43;;;;;;;0.80;0.60;;;24.40;45.60;;;;;;5020755;28;20026;-68
2022/05/22 05:00:11;;;;;;;0.75;0.65;;;24.40;46.10;;;;;;5027038;28;20024;-66
2022/05/22 05:02:37;;;;;;;0.63;0.63;;;24.50;45.60;;;;;;5028618;28;20029;-67
2022/05/22 05:05:05;;;;;;;0.98;0.70;;;24.40;45.60;;;;;;5028308;28;20074;-63
2022/05/22 05:07:32;;;;;;;1.05;0.80;;;24.40;45.60;;;;;;5025392;28;20039;-64
2022/05/22 05:09:58;;;;;;;0.85;0.70;;;24.50;45.70;;;;;;5026377;28;20105;-63
2022/05/22 05:12:24;;;;;;;0.68;0.68;;;24.40;45.60;;;;;;5021751;28;20085;-67
2022/05/22 05:14:49;;;;;;;0.77;0.70;;;24.40;45.60;;;;;;5026898;28;20056;-64
2022/05/22 05:17:17;;;;;;;0.90;0.70;;;24.40;45.90;;;;;;5023249;28;20029;-66
2022/05/22 05:19:44;;;;;;;1.00;0.70;;;24.40;45.60;;;;;;5025815;28;20511;-66
2022/05/22 05:22:10;;;;;;;0.60;0.60;;;24.40;45.60;;;;;;5027342;28;20029;-62
2022/05/22 05:24:36;;;;;;;0.95;0.75;;;24.40;45.60;;;;;;5028088;28;20032;-66
2022/05/22 05:27:02;;;;;;;0.68;0.68;;;24.40;45.70;;;;;;5023215;28;20826;-66
2022/05/22 05:29:27;;;;;;;0.60;0.60;;;24.40;45.70;;;;;;5025397;28;20125;-65
2022/05/22 05:31:53;;;;;;;0.70;0.60;;;24.40;45.60;;;;;;5023594;28;20479;-64
2022/05/22 05:34:19;;;;;;;0.70;0.65;;;24.40;45.70;;;;;;5026190;28;20635;-64
2022/05/22 05:36:45;;;;;;;0.70;0.60;;;24.40;45.70;;;;;;5025291;28;20080;-67
2022/05/22 05:39:12;;;;;;;1.05;0.70;;;24.40;45.70;;;;;;5003862;28;20456;-64
2022/05/22 05:41:38;;;;;;;0.80;0.70;;;24.40;45.70;;;;;;5020761;28;20036;-65
2022/05/22 05:44:08;;;;;;;0.68;0.65;;;24.40;45.70;;;;;;5025884;28;20055;-67
2022/05/22 05:46:38;;;;;;;0.90;0.70;;;24.40;45.70;;;;;;5024128;28;20030;-68
2022/05/22 05:49:05;;;;;;;0.80;0.70;;;24.40;45.70;;;;;;5024294;28;20115;-67
2022/05/22 05:51:31;;;;;;;0.63;0.50;;;24.40;45.70;;;;;;5026761;28;20166;-63
2022/05/22 05:53:57;;;;;;;0.70;0.60;;;24.40;45.70;;;;;;5021898;28;20503;-64
2022/05/22 05:56:23;;;;;;;1.50;0.77;;;24.40;45.80;;;;;;5021995;28;20037;-67
2022/05/22 05:58:49;;;;;;;0.50;0.50;;;24.40;45.80;;;;;;5019271;28;20044;-61
2022/05/22 06:01:17;;;;;;;0.60;0.60;;;24.40;45.70;;;;;;5025846;28;20036;-64
2022/05/22 06:03:44;;;;;;;1.00;0.70;;;24.40;46.30;;;;;;5025071;28;20033;-64
2022/05/22 06:06:11;;;;;;;0.80;0.60;;;24.40;45.80;;;;;;5024580;28;20050;-66
2022/05/22 06:08:37;;;;;;;0.85;0.65;;;24.30;45.70;;;;;;5022426;28;20170;-66
2022/05/22 06:11:03;;;;;;;0.80;0.70;;;24.30;45.70;;;;;;5022012;28;20040;-68
2022/05/22 06:13:29;;;;;;;0.60;0.60;;;24.30;45.70;;;;;;5022699;28;20033;-66
2022/05/22 06:15:55;;;;;;;0.60;0.60;;;24.40;45.80;;;;;;5025355;28;20067;-68
2022/05/22 06:18:20;;;;;;;0.68;0.60;;;24.30;45.70;;;;;;5020152;28;20143;-67
2022/05/22 06:20:47;;;;;;;0.68;0.68;;;24.30;45.80;;;;;;5027244;28;20029;-63
2022/05/22 06:23:13;;;;;;;0.82;0.60;;;24.30;45.80;;;;;;5026263;28;20032;-65
2022/05/22 06:25:41;;;;;;;1.05;0.70;;;24.30;45.70;;;;;;5027461;28;20024;-65
2022/05/22 06:28:06;;;;;;;0.98;0.60;;;24.30;45.80;;;;;;5023978;28;20025;-68
2022/05/22 06:30:32;;;;;;;0.63;0.60;;;24.30;45.80;;;;;;5025947;28;20044;-63
2022/05/22 06:33:00;;;;;;;0.60;0.60;;;24.30;45.80;;;;;;5024249;28;20032;-63
2022/05/22 06:35:25;;;;;;;0.60;0.60;;;24.30;45.80;;;;;;5028783;28;20032;-66
2022/05/22 06:37:51;;;;;;;0.68;0.60;;;24.30;45.80;;;;;;5024710;28;20037;-66
2022/05/22 06:40:17;;;;;;;0.60;0.60;;;24.40;45.80;;;;;;5026086;28;20105;-61
2022/05/22 06:42:44;;;;;;;0.55;0.55;;;24.30;45.80;;;;;;5021111;28;20036;-66
2022/05/22 06:45:11;;;;;;;0.70;0.70;;;24.30;45.80;;;;;;5022332;28;20048;-64
2022/05/22 06:47:37;;;;;;;1.08;0.80;;;24.40;45.30;;;;;;5026480;28;20127;-66
2022/05/22 06:50:06;;;;;;;1.38;0.90;;;24.30;45.20;;;;;;5028234;28;20547;-63
2022/05/22 06:52:32;;;;;;;1.92;1.30;;;24.30;44.40;;;;;;5025931;28;20091;-62
2022/05/22 06:55:01;;;;;;;2.22;1.20;;;24.20;44.40;;;;;;5023696;28;20033;-66
2022/05/22 06:57:28;;;;;;;1.42;1.10;;;24.20;44.50;;;;;;5022600;28;20055;-64
2022/05/22 06:59:56;;;;;;;1.85;1.20;;;24.20;44.30;;;;;;5026500;28;21035;-64
2022/05/22 07:02:22;;;;;;;2.60;1.10;;;24.20;44.30;;;;;;5025617;28;20132;-64
2022/05/22 07:04:48;;;;;;;2.05;1.15;;;24.20;44.40;;;;;;5025084;28;20029;-66
2022/05/22 07:07:13;;;;;;;2.42;1.20;;;24.20;44.50;;;;;;5026121;28;20083;-66
2022/05/22 07:09:39;;;;;;;2.30;1.20;;;24.20;44.50;;;;;;5028746;28;20057;-62
2022/05/22 07:12:10;;;;;;;1.85;1.10;;;24.10;44.20;;;;;;5022878;28;20029;-67
2022/05/22 07:14:36;;;;;;;1.50;1.08;;;24.00;44.70;;;;;;5027752;28;20037;-68
2022/05/22 07:17:03;;;;;;;2.53;1.20;;;24.00;44.90;;;;;;5021528;28;20102;-67
2022/05/22 07:19:30;;;;;;;2.10;1.17;;;24.00;44.50;;;;;;5026584;28;20029;-68
2022/05/22 07:21:55;;;;;;;2.13;1.30;;;24.00;44.80;;;;;;5021351;28;20490;-67
2022/05/22 07:24:21;;;;;;;2.00;1.08;;;24.00;44.90;;;;;;5030592;28;20104;-66
2022/05/22 07:26:46;;;;;;;1.90;1.10;;;24.00;44.50;;;;;;5021861;28;20032;-65
2022/05/22 07:29:12;;;;;;;1.83;1.10;;;24.00;44.40;;;;;;5025802;28;20037;-65
2022/05/22 07:31:40;;;;;;;1.75;1.17;;;24.00;43.30;;;;;;5024697;28;20025;-66
2022/05/22 07:34:06;;;;;;;1.88;1.08;;;23.90;43.90;;;;;;5028784;28;20040;-64
2022/05/22 07:36:32;;;;;;;1.90;1.05;;;23.90;44.30;;;;;;5026780;28;20501;-67
2022/05/22 07:38:57;;;;;;;2.42;1.30;;;23.90;44.00;;;;;;5025420;28;20041;-61
2022/05/22 07:41:23;;;;;;;2.33;1.30;;;23.90;43.10;;;;;;5026125;28;20726;-66
2022/05/22 07:43:49;;;;;;;1.50;1.00;;;23.80;43.70;;;;;;5025800;28;20818;-61
2022/05/22 07:46:15;;;;;;;2.30;1.60;;;23.90;44.30;;;;;;5025856;28;20051;-67
2022/05/22 07:48:42;;;;;;;1.92;1.13;;;23.90;44.10;;;;;;5027064;28;20031;-64
2022/05/22 07:51:09;;;;;;;2.22;1.20;;;23.90;44.10;;;;;;5025691;28;20516;-65
2022/05/22 07:53:35;;;;;;;1.63;1.02;;;23.80;44.50;;;;;;5027925;28;20203;-66
2022/05/22 07:56:02;;;;;;;2.30;1.10;;;23.90;44.60;;;;;;5025630;28;20121;-63
2022/05/22 07:58:29;;;;;;;1.45;0.98;;;23.90;44.40;;;;;;5024250;28;20033;-64
2022/05/22 08:00:56;;;;;;;1.77;0.90;;;23.90;44.70;;;;;;5024754;28;20698;-68
2022/05/22 08:03:22;;;;;;;1.83;1.00;;;23.90;44.80;;;;;;5023557;28;20128;-67
2022/05/22 08:05:47;;;;;;;1.85;0.95;;;23.90;44.80;;;;;;5024632;28;20037;-67
2022/05/22 08:08:14;;;;;;;2.42;1.00;;;23.90;44.80;;;;;;5022520;28;20148;-64
2022/05/22 08:10:41;;;;;;;1.38;0.90;;;23.90;44.80;;;;;;5023281;28;20075;-64
2022/05/22 08:13:09;;;;;;;2.38;1.20;;;23.90;44.80;;;;;;5020316;28;20058;-65
2022/05/22 08:15:37;;;;;;;1.23;0.85;;;23.90;44.90;;;;;;5016274;28;20041;-68
2022/05/22 08:18:03;;;;;;;1.60;0.80;;;23.90;44.90;;;;;;5023992;28;20047;-66
2022/05/22 08:20:33;;;;;;;1.48;0.80;;;23.90;44.90;;;;;;5025024;28;20033;-65
2022/05/22 08:23:02;;;;;;;2.30;0.88;;;23.90;45.00;;;;;;5027701;28;20997;-69
2022/05/22 08:25:29;;;;;;;1.30;0.80;;;23.90;45.10;;;;;;5019603;28;20481;-63
2022/05/22 08:27:56;;;;;;;1.58;0.90;;;23.90;45.10;;;;;;5021504;28;20024;-66
2022/05/22 08:30:24;;;;;;;2.25;1.00;;;23.90;45.10;;;;;;5024339;28;20190;-68
2022/05/22 08:32:52;;;;;;;1.20;0.85;;;23.90;45.10;;;;;;5023797;28;20106;-65
2022/05/22 08:35:21;;;;;;;1.20;0.80;;;23.90;45.20;;;;;;5028848;28;20033;-64
2022/05/22 08:37:47;;;;;;;1.33;0.90;;;23.90;45.20;;;;;;5025036;28;20062;-65
2022/05/22 08:40:15;;;;;;;2.05;1.00;;;23.90;45.20;;;;;;5021326;28;20120;-64
2022/05/22 08:42:45;;;;;;;1.27;0.90;;;23.90;45.20;;;;;;5022908;28;20052;-66
2022/05/22 08:45:29;;;;;;;2.38;0.90;;;24.00;45.80;;;;;;5020286;28;20087;-62
2022/05/22 08:48:13;;;;;;;1.73;0.93;;;24.00;45.30;;;;;;5025567;28;20040;-65
2022/05/22 08:50:41;;;;;;;1.35;0.90;;;24.00;45.30;;;;;;5025920;28;20124;-68
2022/05/22 08:53:15;;;;;;;1.40;0.80;;;24.00;45.30;;;;;;5027212;28;20028;-64
2022/05/22 08:58:56;;;;;;;1.00;0.80;;;24.00;45.20;;;;;;5020084;28;20090;-64
2022/05/22 09:01:45;;;;;;;1.08;0.80;;;24.00;45.30;;;;;;5020498;28;20033;-65
2022/05/22 09:04:10;;;;;;;0.75;0.70;;;24.00;45.20;;;;;;5026778;28;20037;-62
2022/05/22 09:06:43;;;;;;;2.03;0.90;;;24.00;45.20;;;;;;5026686;28;20029;-65
2022/05/22 09:09:09;;;;;;;1.73;1.00;;;24.00;45.70;;;;;;5022790;28;20064;-63
2022/05/22 09:11:52;;;;;;;1.13;0.93;;;24.00;45.20;;;;;;5024893;28;20135;-66
2022/05/22 09:14:47;;;;;;;1.33;0.90;;;24.00;45.20;;;;;;5022443;28;20127;-65
2022/05/22 09:17:17;;;;;;;1.05;0.80;;;24.00;45.20;;;;;;5017521;28;21217;-66
2022/05/22 09:19:46;;;;;;;0.70;0.70;;;24.00;45.20;;;;;;5022374;28;20044;-66
2022/05/22 09:22:47;;;;;;;1.23;0.80;;;24.10;45.30;;;;;;5024854;28;20045;-63
2022/05/22 09:25:36;;;;;;;0.70;0.70;;;24.10;45.20;;;;;;5003949;28;20037;-62
2022/05/22 09:28:17;;;;;;;0.90;0.80;;;24.10;45.30;;;;;;5022750;28;20582;-67
2022/05/22 09:31:07;;;;;;;1.17;0.80;;;24.10;45.20;;;;;;5026281;28;20193;-65
2022/05/22 09:33:48;;;;;;;1.52;0.88;;;24.10;45.20;;;;;;5022841;28;20027;-63
2022/05/22 09:36:52;;;;;;;0.90;0.80;;;24.10;45.20;;;;;;5025036;28;20144;-67
2022/05/22 09:39:28;;;;;;;0.70;0.70;;;24.10;45.20;;;;;;4961488;28;20037;-63
2022/05/22 09:41:59;;;;;;;1.27;0.90;;;24.10;45.30;;;;;;5014778;28;20037;-66
2022/05/22 09:44:43;;;;;;;0.90;0.80;;;24.10;45.30;;;;;;5020171;28;20063;-64
2022/05/22 09:47:15;;;;;;;1.17;0.80;;;24.10;45.20;;;;;;5020582;28;20112;-65
2022/05/22 09:50:04;;;;;;;0.80;0.70;;;24.10;45.30;;;;;;5024528;28;20595;-67
2022/05/22 09:52:53;;;;;;;;;;;24.10;45.20;;;;;;5007565;28;20128;-66
2022/05/22 09:55:27;;;;;;;1.17;0.82;;;24.10;45.20;;;;;;5025331;28;20511;-67
2022/05/22 09:58:00;;;;;;;1.08;0.80;;;24.10;45.20;;;;;;5020118;28;20064;-64
2022/05/22 10:00:38;;;;;;;0.90;0.70;;;24.10;45.20;;;;;;5021145;28;20043;-65
2022/05/22 10:03:15;;;;;;;1.00;0.70;;;24.10;45.20;;;;;;5020012;28;20029;-65
2022/05/22 10:05:57;;;;;;;1.27;0.80;;;24.10;45.20;;;;;;5023505;28;20045;-61
2022/05/22 10:08:51;;;;;;;0.90;0.80;;;24.10;45.20;;;;;;5025764;28;20037;-65
2022/05/22 10:11:52;;;;;;;1.08;0.80;;;24.10;45.20;;;;;;5024884;28;20032;-67
2022/05/22 10:14:33;;;;;;;1.05;0.70;;;24.20;45.30;;;;;;5024323;28;20115;-62
2022/05/22 10:17:23;;;;;;;0.80;0.70;;;24.10;45.30;;;;;;5020597;28;20036;-65
2022/05/22 10:20:07;;;;;;;1.02;0.73;;;24.20;45.30;;;;;;5020412;28;20029;-66
2022/05/22 10:23:10;;;;;;;1.05;0.75;;;24.20;45.40;;;;;;5021246;28;20037;-63
2022/05/22 10:25:54;;;;;;;1.17;0.80;;;24.20;45.50;;;;;;5026965;28;20033;-67
2022/05/22 10:28:29;;;;;;;0.90;0.70;;;24.20;45.40;;;;;;5019425;28;20025;-65
2022/05/22 10:31:06;;;;;;;1.27;0.85;;;24.20;45.40;;;;;;5025101;28;20037;-65
2022/05/22 10:34:08;;;;;;;1.67;0.93;;;24.20;45.40;;;;;;5025071;28;20021;-64
2022/05/22 10:36:40;;;;;;;1.75;0.90;;;24.20;45.40;;;;;;5015560;28;20041;-60
2022/05/22 10:39:11;;;;;;;1.85;0.95;;;24.20;45.40;;;;;;5027071;28;20029;-62
2022/05/22 10:42:47;;;;;;;1.42;0.90;;;24.20;45.40;;;;;;5025071;28;20039;-61
2022/05/22 10:44:57;;;;;;;0.90;0.77;;;24.20;45.40;;;;;;5014928;28;20412;-62
2022/05/22 10:47:31;;;;;;;1.90;0.90;;;24.20;45.40;;;;;;5022670;28;20025;-66
2022/05/22 10:49:59;;;;;;;1.67;0.90;;;24.30;45.50;;;;;;5023283;28;20681;-67
2022/05/22 10:52:31;;;;;;;1.47;0.90;;;24.30;45.40;;;;;;5019919;28;20705;-63
2022/05/22 10:54:58;;;;;;;2.90;1.00;;;24.30;45.40;;;;;;5023546;28;20041;-63
2022/05/22 10:57:24;;;;;;;1.50;0.85;;;24.30;45.40;;;;;;5026297;28;20112;-60
2022/05/22 10:59:51;;;;;;;1.58;0.80;;;24.30;45.40;;;;;;5030328;28;20060;-66
2022/05/22 11:02:25;;;;;;;1.92;1.00;;;24.30;45.30;;;;;;5028269;28;20148;-64
2022/05/22 11:04:53;;;;;;;1.42;0.80;;;24.30;45.40;;;;;;5030263;28;20066;-64
2022/05/22 11:07:34;;;;;;;1.08;0.80;;;24.30;45.30;;;;;;5029684;28;20037;-61
2022/05/22 11:10:16;;;;;;;2.17;0.80;;;24.30;45.40;;;;;;5011770;28;20044;-63
2022/05/22 11:12:43;;;;;;;1.75;0.85;;;24.40;45.50;;;;;;5025235;28;20488;-65
2022/05/22 11:15:26;;;;;;;1.27;0.77;;;24.30;45.40;;;;;;5028783;28;20047;-67
2022/05/22 11:18:12;;;;;;;1.83;0.98;;;24.40;45.40;;;;;;5029782;28;20184;-63
2022/05/22 11:21:11;;;;;;;1.15;0.95;;;24.40;45.40;;;;;;5028327;28;20792;-63
2022/05/22 11:24:02;;;;;;;1.23;0.80;;;24.40;45.30;;;;;;5023141;28;20045;-66
2022/05/22 11:26:51;;;;;;;1.48;0.82;;;24.40;45.30;;;;;;5027942;28;20028;-65
2022/05/22 11:29:29;;;;;;;1.00;0.63;;;24.40;45.30;;;;;;5028275;28;20029;-65
2022/05/22 11:32:28;;;;;;;1.55;0.70;;;24.50;45.30;;;;;;5030261;28;20143;-65
2022/05/22 11:34:56;;;;;;;1.17;0.77;;;24.50;45.30;;;;;;5029265;28;20033;-65
2022/05/22 11:37:49;;;;;;;1.25;0.80;;;24.50;45.30;;;;;;5031586;28;20039;-66
2022/05/22 11:40:27;;;;;;;1.35;0.80;;;24.50;45.30;;;;;;5028167;28;20226;-64
2022/05/22 11:43:03;;;;;;;1.30;0.80;;;24.50;45.40;;;;;;5026293;28;20025;-62
2022/05/22 11:45:38;;;;;;;1.77;0.80;;;24.50;45.40;;;;;;5027177;28;21047;-65
2022/05/22 11:48:24;;;;;;;1.20;0.70;;;24.50;45.40;;;;;;5026223;28;20122;-64
2022/05/22 11:50:58;;;;;;;1.17;0.77;;;24.50;45.40;;;;;;5030673;28;20032;-65
2022/05/22 11:53:48;;;;;;;1.45;0.90;;;24.50;45.40;;;;;;5028173;28;20048;-67
2022/05/22 11:56:41;;;;;;;1.30;0.73;;;24.50;45.40;;;;;;5028232;28;20020;-64
2022/05/22 11:59:15;;;;;;;1.35;0.77;;;24.50;45.40;;;;;;5023048;28;20837;-65
2022/05/22 12:01:45;;;;;;;0.80;0.70;;;24.60;45.60;;;;;;5021842;28;20041;-63
2022/05/22 12:04:52;;;;;;;1.00;0.63;;;24.50;45.50;;;;;;5020655;28;20034;-65
2022/05/22 12:07:50;;;;;;;0.98;0.73;;;24.50;45.40;;;;;;5000099;28;20041;-63
2022/05/22 12:10:49;;;;;;;1.77;0.80;;;24.50;45.40;;;;;;5027678;28;20032;-67
2022/05/22 12:13:55;;;;;;;1.02;0.70;;;24.60;45.50;;;;;;4972265;28;20041;-67
2022/05/22 12:16:31;;;;;;;1.25;0.90;;;24.50;45.50;;;;;;5020000;28;20048;-65
2022/05/22 12:19:01;;;;;;;1.20;0.80;;;24.50;45.40;;;;;;5026921;28;20082;-66
2022/05/22 12:21:55;;;;;;;1.10;0.80;;;24.50;45.40;;;;;;5024094;28;20028;-63
2022/05/22 12:24:39;;;;;;;1.13;0.80;;;24.50;45.40;;;;;;5028086;28;20029;-64
2022/05/22 12:27:28;;;;;;;2.78;1.00;;;24.60;45.50;;;;;;5023165;28;20109;-63
2022/05/22 12:29:59;;;;;;;;;;;24.50;45.40;;;;;;5027949;28;20021;-66
2022/05/22 12:32:28;;;;;;;1.60;0.75;;;24.60;45.40;;;;;;5026390;28;19928;-61
2022/05/22 12:34:57;;;;;;;1.83;1.00;;;24.60;45.30;;;;;;5022697;28;20029;-63
2022/05/22 12:37:37;;;;;;;1.50;0.80;;;24.60;45.30;;;;;;5023157;28;20603;-64
2022/05/22 12:40:28;;;;;;;1.73;0.80;;;24.60;45.30;;;;;;5025112;28;20036;-64
2022/05/22 12:42:57;;;;;;;1.17;0.80;;;24.60;45.30;;;;;;5023261;28;20033;-64
2022/05/22 12:45:28;;;;;;;1.00;0.70;;;24.60;45.40;;;;;;5023513;28;20051;-63
2022/05/22 12:47:55;;;;;;;1.25;0.90;;;24.60;45.50;;;;;;5021015;28;20036;-66
2022/05/22 12:50:47;;;;;;;1.20;0.80;;;24.70;45.50;;;;;;5024265;28;20116;-64
2022/05/22 12:53:29;;;;;;;1.42;0.70;;;24.70;45.50;;;;;;4993017;28;20033;-66
2022/05/22 12:55:55;;;;;;;1.08;0.70;;;24.70;45.50;;;;;;5021408;28;20144;-63
2022/05/22 12:58:36;;;;;;;2.22;1.00;;;24.70;45.40;;;;;;5020176;28;20116;-64
2022/05/22 13:01:02;;;;;;;1.25;0.85;;;24.70;45.50;;;;;;5021904;28;20051;-64
2022/05/22 13:03:40;;;;;;;1.23;0.80;;;24.70;45.40;;;;;;5023307;28;20024;-60
2022/05/22 13:06:23;;;;;;;1.40;0.82;;;24.70;45.40;;;;;;5023726;28;20601;-64
2022/05/22 13:08:59;;;;;;;0.85;0.80;;;24.70;45.40;;;;;;5020642;28;20694;-64
2022/05/22 13:11:39;;;;;;;1.88;0.80;;;24.80;45.50;;;;;;5024848;28;20021;-65
2022/05/22 13:14:10;;;;;;;1.63;0.80;;;24.80;45.50;;;;;;5020185;28;20845;-66
2022/05/22 13:16:45;;;;;;;1.30;0.90;;;24.80;45.60;;;;;;5024933;28;20427;-64